HVN1821 VVTS-VVPQ
Flight info
| Callsign | HVN1821 |
|---|---|
| Flight time | 0h 30m |
| Altitude | 20000 |
| Route | BACHU5A BACHU W17 TUNPO TRUMI2B |
| Aircraft | A321/M-SDE3FGHIRWY/LB1 |
Departure
| Time | 2026-05-07 15:37 |
|---|---|
| Airport | Tan Son Nhat International Airport (VVTS) |
Arrival
| Time | 2026-05-07 16:07 |
|---|---|
| Airport | Phú Quốc International Airport (VVPQ) |
| Time | Latitude | Longitude | Altitude | Speed | Heading |
|---|---|---|---|---|---|
| 2026-05-07 15:09 | 10.81275 | 106.65351 | 36 ft | 0 kts | 159° |
| 2026-05-07 15:26 | 10.81294 | 106.65343 | 35 ft | 3 kts | 149° |
| 2026-05-07 15:26 | 10.81313 | 106.65328 | 34 ft | 3 kts | 126° |
| 2026-05-07 15:27 | 10.81322 | 106.65308 | 37 ft | 3 kts | 88° |
| 2026-05-07 15:27 | 10.81321 | 106.65295 | 37 ft | 0 kts | 69° |
| 2026-05-07 15:30 | 10.81323 | 106.65300 | 37 ft | 2 kts | 69° |
| 2026-05-07 15:30 | 10.81333 | 106.65327 | 34 ft | 7 kts | 69° |
| 2026-05-07 15:30 | 10.81363 | 106.65409 | 36 ft | 17 kts | 68° |
| 2026-05-07 15:31 | 10.81411 | 106.65537 | 37 ft | 22 kts | 69° |
| 2026-05-07 15:31 | 10.81469 | 106.65688 | 37 ft | 19 kts | 68° |
| 2026-05-07 15:31 | 10.81491 | 106.65746 | 37 ft | 7 kts | 70° |
| 2026-05-07 15:31 | 10.81524 | 106.65789 | 37 ft | 9 kts | 25° |
| 2026-05-07 15:32 | 10.81598 | 106.65799 | 37 ft | 12 kts | 4° |
| 2026-05-07 15:32 | 10.81689 | 106.65800 | 32 ft | 15 kts | 340° |
| 2026-05-07 15:32 | 10.81769 | 106.65833 | 35 ft | 14 kts | 63° |
| 2026-05-07 15:32 | 10.81805 | 106.65921 | 36 ft | 14 kts | 69° |
| 2026-05-07 15:33 | 10.81845 | 106.66030 | 37 ft | 20 kts | 69° |
| 2026-05-07 15:33 | 10.81901 | 106.66180 | 36 ft | 26 kts | 69° |
| 2026-05-07 15:33 | 10.81964 | 106.66345 | 37 ft | 24 kts | 68° |
| 2026-05-07 15:33 | 10.82027 | 106.66509 | 34 ft | 26 kts | 69° |
| 2026-05-07 15:34 | 10.82087 | 106.66671 | 33 ft | 24 kts | 69° |
| 2026-05-07 15:34 | 10.82146 | 106.66829 | 31 ft | 23 kts | 68° |
| 2026-05-07 15:34 | 10.82199 | 106.66967 | 34 ft | 12 kts | 69° |
| 2026-05-07 15:34 | 10.82258 | 106.67008 | 35 ft | 11 kts | 352° |
| 2026-05-07 15:35 | 10.82279 | 106.67001 | 35 ft | 0 kts | 340° |
| 2026-05-07 15:35 | 10.82297 | 106.66993 | 35 ft | 6 kts | 334° |
| 2026-05-07 15:35 | 10.82341 | 106.66946 | 35 ft | 11 kts | 311° |
| 2026-05-07 15:36 | 10.82334 | 106.66855 | 33 ft | 21 kts | 250° |
| 2026-05-07 15:36 | 10.82190 | 106.66474 | 33 ft | 93 kts | 249° |
| 2026-05-07 15:36 | 10.81883 | 106.65661 | 36 ft | 150 kts | 249° |
| 2026-05-07 15:36 | 10.81460 | 106.64529 | 170 ft | 182 kts | 248° |
| 2026-05-07 15:37 | 10.81022 | 106.63345 | 812 ft | 180 kts | 245° |
| 2026-05-07 15:37 | 10.80567 | 106.62154 | 1424 ft | 181 kts | 245° |
| 2026-05-07 15:37 | 10.80104 | 106.60947 | 1933 ft | 188 kts | 244° |
| 2026-05-07 15:37 | 10.79599 | 106.59642 | 2088 ft | 209 kts | 245° |
| 2026-05-07 15:38 | 10.79039 | 106.58192 | 2235 ft | 230 kts | 246° |
| 2026-05-07 15:38 | 10.78430 | 106.56605 | 2346 ft | 253 kts | 246° |
| 2026-05-07 15:38 | 10.77769 | 106.54878 | 2580 ft | 275 kts | 247° |
| 2026-05-07 15:38 | 10.77072 | 106.53041 | 3174 ft | 280 kts | 247° |
| 2026-05-07 15:39 | 10.76373 | 106.51187 | 3864 ft | 282 kts | 248° |
| 2026-05-07 15:39 | 10.75671 | 106.49321 | 4611 ft | 283 kts | 248° |
| 2026-05-07 15:39 | 10.74964 | 106.47449 | 5299 ft | 285 kts | 249° |
| 2026-05-07 15:39 | 10.74248 | 106.45557 | 5961 ft | 288 kts | 249° |
| 2026-05-07 15:40 | 10.73521 | 106.43645 | 6605 ft | 291 kts | 249° |
| 2026-05-07 15:40 | 10.72786 | 106.41715 | 7227 ft | 294 kts | 249° |
| 2026-05-07 15:40 | 10.72041 | 106.39756 | 7721 ft | 300 kts | 249° |
| 2026-05-07 15:40 | 10.71289 | 106.37781 | 7835 ft | 300 kts | 249° |
| 2026-05-07 15:41 | 10.70538 | 106.35804 | 7870 ft | 299 kts | 249° |
| 2026-05-07 15:41 | 10.69789 | 106.33834 | 7869 ft | 299 kts | 249° |
| 2026-05-07 15:41 | 10.69041 | 106.31862 | 7868 ft | 299 kts | 249° |
| 2026-05-07 15:41 | 10.68299 | 106.29882 | 7963 ft | 302 kts | 250° |
| 2026-05-07 15:42 | 10.67596 | 106.27869 | 8628 ft | 302 kts | 251° |
| 2026-05-07 15:42 | 10.66913 | 106.25844 | 9262 ft | 305 kts | 251° |
| 2026-05-07 15:42 | 10.66232 | 106.23790 | 9867 ft | 308 kts | 251° |
| 2026-05-07 15:42 | 10.65544 | 106.21716 | 10139 ft | 324 kts | 251° |
| 2026-05-07 15:43 | 10.64797 | 106.19483 | 10266 ft | 343 kts | 251° |
| 2026-05-07 15:43 | 10.64002 | 106.17125 | 10390 ft | 362 kts | 251° |
| 2026-05-07 15:43 | 10.63161 | 106.14645 | 10497 ft | 379 kts | 251° |
| 2026-05-07 15:43 | 10.62284 | 106.12057 | 10642 ft | 394 kts | 251° |
| 2026-05-07 15:44 | 10.61382 | 106.09404 | 11011 ft | 400 kts | 251° |
| 2026-05-07 15:44 | 10.60468 | 106.06721 | 11476 ft | 403 kts | 251° |
| 2026-05-07 15:44 | 10.59547 | 106.04018 | 11970 ft | 406 kts | 250° |
| 2026-05-07 15:44 | 10.58619 | 106.01294 | 12443 ft | 409 kts | 250° |
| 2026-05-07 15:45 | 10.57671 | 105.98559 | 12947 ft | 412 kts | 249° |
| 2026-05-07 15:45 | 10.56683 | 105.95820 | 13441 ft | 414 kts | 249° |
| 2026-05-07 15:45 | 10.55667 | 105.93070 | 13900 ft | 417 kts | 248° |
| 2026-05-07 15:45 | 10.54638 | 105.90306 | 14331 ft | 420 kts | 248° |
| 2026-05-07 15:46 | 10.52576 | 105.84752 | 15162 ft | 426 kts | 248° |
| 2026-05-07 15:46 | 10.51535 | 105.81925 | 15609 ft | 429 kts | 249° |
| 2026-05-07 15:46 | 10.50491 | 105.79079 | 16044 ft | 431 kts | 249° |
| 2026-05-07 15:47 | 10.49442 | 105.76207 | 16469 ft | 434 kts | 249° |
| 2026-05-07 15:47 | 10.48389 | 105.73321 | 16884 ft | 437 kts | 249° |
| 2026-05-07 15:47 | 10.47327 | 105.70418 | 17275 ft | 440 kts | 248° |
| 2026-05-07 15:47 | 10.46254 | 105.67495 | 17679 ft | 442 kts | 248° |
| 2026-05-07 15:48 | 10.45172 | 105.64559 | 18056 ft | 445 kts | 248° |
| 2026-05-07 15:48 | 10.44087 | 105.61604 | 18399 ft | 447 kts | 248° |
| 2026-05-07 15:48 | 10.43003 | 105.58642 | 18730 ft | 449 kts | 248° |
| 2026-05-07 15:48 | 10.41914 | 105.55665 | 19054 ft | 451 kts | 248° |
| 2026-05-07 15:49 | 10.41188 | 105.53685 | 19267 ft | 452 kts | 248° |
| 2026-05-07 15:49 | 10.40089 | 105.50685 | 19587 ft | 454 kts | 248° |
| 2026-05-07 15:49 | 10.38615 | 105.46664 | 19837 ft | 455 kts | 248° |
| 2026-05-07 15:49 | 10.37874 | 105.44650 | 19868 ft | 461 kts | 248° |
| 2026-05-07 15:50 | 10.36740 | 105.41574 | 19873 ft | 470 kts | 248° |
| 2026-05-07 15:50 | 10.35585 | 105.38443 | 19871 ft | 475 kts | 248° |
| 2026-05-07 15:50 | 10.34428 | 105.35297 | 19879 ft | 476 kts | 248° |
| 2026-05-07 15:50 | 10.33270 | 105.32150 | 19878 ft | 476 kts | 248° |
| 2026-05-07 15:51 | 10.32113 | 105.29005 | 19880 ft | 476 kts | 248° |
| 2026-05-07 15:51 | 10.30953 | 105.25856 | 19879 ft | 476 kts | 248° |
| 2026-05-07 15:51 | 10.29793 | 105.22706 | 19879 ft | 476 kts | 248° |
| 2026-05-07 15:51 | 10.28634 | 105.19562 | 19879 ft | 475 kts | 248° |
| 2026-05-07 15:52 | 10.27476 | 105.16423 | 19880 ft | 475 kts | 248° |
| 2026-05-07 15:52 | 10.26328 | 105.13311 | 19874 ft | 463 kts | 248° |
| 2026-05-07 15:52 | 10.25211 | 105.10275 | 19881 ft | 456 kts | 248° |
| 2026-05-07 15:52 | 10.24102 | 105.07265 | 19882 ft | 454 kts | 248° |
| 2026-05-07 15:53 | 10.22996 | 105.04269 | 19882 ft | 453 kts | 248° |
| 2026-05-07 15:53 | 10.21889 | 105.01271 | 19168 ft | 455 kts | 248° |
| 2026-05-07 15:53 | 10.20765 | 104.98232 | 18044 ft | 464 kts | 248° |
| 2026-05-07 15:53 | 10.19632 | 104.95173 | 16956 ft | 461 kts | 248° |
| 2026-05-07 15:54 | 10.18511 | 104.92141 | 15990 ft | 456 kts | 248° |
| 2026-05-07 15:54 | 10.17405 | 104.89145 | 15087 ft | 450 kts | 248° |
| 2026-05-07 15:54 | 10.16314 | 104.86193 | 14205 ft | 442 kts | 248° |
| 2026-05-07 15:54 | 10.15249 | 104.83309 | 12835 ft | 433 kts | 249° |
| 2026-05-07 15:55 | 10.14203 | 104.80480 | 11708 ft | 420 kts | 249° |
| 2026-05-07 15:55 | 10.13228 | 104.77837 | 11312 ft | 389 kts | 249° |
| 2026-05-07 15:55 | 10.12303 | 104.75338 | 11057 ft | 358 kts | 249° |
| 2026-05-07 15:55 | 10.11471 | 104.73099 | 10908 ft | 330 kts | 248° |
| 2026-05-07 15:56 | 10.10680 | 104.70974 | 10457 ft | 316 kts | 249° |
| 2026-05-07 15:56 | 10.09914 | 104.68910 | 10030 ft | 311 kts | 249° |
| 2026-05-07 15:56 | 10.09157 | 104.66866 | 9861 ft | 308 kts | 249° |
| 2026-05-07 15:56 | 10.08403 | 104.64829 | 9740 ft | 308 kts | 249° |
| 2026-05-07 15:57 | 10.07651 | 104.62797 | 9629 ft | 308 kts | 249° |
| 2026-05-07 15:57 | 10.06909 | 104.60764 | 9482 ft | 307 kts | 252° |
| 2026-05-07 15:57 | 10.06515 | 104.58646 | 9366 ft | 306 kts | 268° |
| 2026-05-07 15:57 | 10.06669 | 104.56499 | 9234 ft | 305 kts | 282° |
| 2026-05-07 15:58 | 10.07075 | 104.54382 | 9117 ft | 305 kts | 282° |
| 2026-05-07 15:58 | 10.07479 | 104.52270 | 8882 ft | 305 kts | 282° |
| 2026-05-07 15:58 | 10.07877 | 104.50171 | 8554 ft | 303 kts | 281° |
| 2026-05-07 15:58 | 10.08271 | 104.48079 | 8212 ft | 301 kts | 281° |
| 2026-05-07 15:59 | 10.08659 | 104.45996 | 7869 ft | 299 kts | 281° |
| 2026-05-07 15:59 | 10.09042 | 104.43923 | 7526 ft | 298 kts | 281° |
| 2026-05-07 15:59 | 10.09423 | 104.41862 | 7183 ft | 297 kts | 281° |
| 2026-05-07 15:59 | 10.09808 | 104.39806 | 6844 ft | 296 kts | 281° |
| 2026-05-07 16:00 | 10.10187 | 104.37787 | 6516 ft | 295 kts | 281° |
| 2026-05-07 16:00 | 10.10575 | 104.35722 | 6174 ft | 294 kts | 281° |
| 2026-05-07 16:00 | 10.11000 | 104.33700 | 5829 ft | 292 kts | 284° |
| 2026-05-07 16:00 | 10.11491 | 104.31711 | 5494 ft | 290 kts | 285° |
| 2026-05-07 16:01 | 10.12003 | 104.29766 | 5172 ft | 288 kts | 286° |
| 2026-05-07 16:01 | 10.12523 | 104.27821 | 5000 ft | 280 kts | 286° |
| 2026-05-07 16:01 | 10.13016 | 104.25963 | 4903 ft | 269 kts | 285° |
| 2026-05-07 16:01 | 10.13508 | 104.24088 | 4291 ft | 280 kts | 285° |
| 2026-05-07 16:02 | 10.14005 | 104.22175 | 3891 ft | 277 kts | 285° |
| 2026-05-07 16:02 | 10.14477 | 104.20342 | 3581 ft | 260 kts | 285° |
| 2026-05-07 16:02 | 10.14915 | 104.18631 | 3324 ft | 241 kts | 284° |
| 2026-05-07 16:02 | 10.15251 | 104.17029 | 3066 ft | 223 kts | 276° |
| 2026-05-07 16:03 | 10.15393 | 104.15517 | 2791 ft | 209 kts | 274° |
| 2026-05-07 16:03 | 10.15521 | 104.14088 | 2526 ft | 199 kts | 274° |
| 2026-05-07 16:03 | 10.15654 | 104.12720 | 2276 ft | 190 kts | 275° |
| 2026-05-07 16:03 | 10.15781 | 104.11431 | 2033 ft | 178 kts | 275° |
| 2026-05-07 16:04 | 10.15901 | 104.10226 | 1832 ft | 164 kts | 275° |
| 2026-05-07 16:04 | 10.16012 | 104.09104 | 1616 ft | 156 kts | 276° |
| 2026-05-07 16:04 | 10.16226 | 104.06949 | 1225 ft | 152 kts | 276° |
| 2026-05-07 16:05 | 10.16332 | 104.05884 | 1023 ft | 151 kts | 276° |
| 2026-05-07 16:05 | 10.16437 | 104.04822 | 831 ft | 151 kts | 276° |
| 2026-05-07 16:05 | 10.16534 | 104.03773 | 642 ft | 151 kts | 277° |
| 2026-05-07 16:05 | 10.16651 | 104.02713 | 461 ft | 152 kts | 277° |
| 2026-05-07 16:06 | 10.16749 | 104.01647 | 270 ft | 150 kts | 277° |
| 2026-05-07 16:06 | 10.16854 | 104.00580 | 84 ft | 152 kts | 278° |
| 2026-05-07 16:06 | 10.16959 | 103.99618 | 58 ft | 113 kts | 276° |
| 2026-05-07 16:06 | 10.17014 | 103.99053 | 68 ft | 56 kts | 276° |
| 2026-05-07 16:07 | 10.17031 | 103.98775 | 61 ft | 32 kts | 265° |